Albion, Idaho
Current Conditions -  °F | °C
As of 2:53 AM on Sunday 23 Nov 2014 (Local Time) from KBYI Reporting Station
Light Snow Light Snow  
Wind Chill: 19°   Ceiling: Unl
Heat Index: 32°   Visibility: 9mi
Dew Point: 25°   Wind: 25mph
Humidity: 75%   Direction: 270°W
Pressure: 30.02"   Gusts: 39mph
Location:  42.41°N, 113.58°W
Report Text: KBYI 230953Z AUTO 27022G34KT 9SM -SN CLR 00/M04 A3002 RMK AO2 PK WND 28039/0859 RAB22E36UPB36E42SNE14B42 SLP172 P0000 T00001039
Loading
Personal Weather Stations






























Interactive Weather Map New forecast layout! Learn more

10-Day Weather Forecast

Advertisements
Track Severe Weather on mobile